New Rockfrd, North Dakota
Current Conditions -  °F | °C
As of 5:15 PM on Friday 31 Oct 2014 (Local Time) from K46D Reporting Station
Clear Clear  
Wind Chill: 26°   Ceiling: Unl
Heat Index: 37°   Visibility: 10mi
Dew Point: 16°   Wind: 23mph
Humidity: 41%   Direction: 160°SSE
Pressure: 30.31"   Gusts: NA
Location:  47.6736°N, 98.8981°W
Report Text: K46D 312215Z AUTO 16020KT 10SM CLR 03/M09 A3031 RMK AO2
Loading
Personal Weather Stations






























Interactive Weather Map
Tropical Storm Tracking
New forecast layout! Learn more

10-Day Weather Forecast

Advertisements
Track Severe Weather on mobile